sensor_id;sensor_type;location;lat;lon;timestamp;pressure;altitude;pressure_sealevel;temperature;humidity
33153;BME280;19509;43.862;26.176;2023-06-22T00:01:48;101008.38;;;19.77;98.15
33153;BME280;19509;43.862;26.176;2023-06-22T00:04:13;101011.09;;;19.77;97.78
33153;BME280;19509;43.862;26.176;2023-06-22T00:06:39;101004.56;;;19.83;97.18
33153;BME280;19509;43.862;26.176;2023-06-22T00:09:04;101011.03;;;19.72;97.06
33153;BME280;19509;43.862;26.176;2023-06-22T00:11:33;101012.34;;;19.64;96.96
33153;BME280;19509;43.862;26.176;2023-06-22T00:13:59;101004.84;;;19.54;97.44
33153;BME280;19509;43.862;26.176;2023-06-22T00:16:25;101010.56;;;19.53;98.00
33153;BME280;19509;43.862;26.176;2023-06-22T00:18:50;101009.50;;;19.54;97.99
33153;BME280;19509;43.862;26.176;2023-06-22T00:21:16;101006.09;;;19.42;97.75
33153;BME280;19509;43.862;26.176;2023-06-22T00:23:41;101006.09;;;19.42;98.28
33153;BME280;19509;43.862;26.176;2023-06-22T00:26:08;101014.34;;;19.47;98.13
33153;BME280;19509;43.862;26.176;2023-06-22T00:28:34;100995.66;;;19.33;96.93
33153;BME280;19509;43.862;26.176;2023-06-22T00:30:59;101008.91;;;19.47;96.74
33153;BME280;19509;43.862;26.176;2023-06-22T00:33:26;101005.09;;;19.21;97.03
33153;BME280;19509;43.862;26.176;2023-06-22T00:35:52;101003.75;;;19.23;95.80
33153;BME280;19509;43.862;26.176;2023-06-22T00:38:18;101007.25;;;19.19;95.03
33153;BME280;19509;43.862;26.176;2023-06-22T00:40:44;101007.09;;;19.03;96.84
33153;BME280;19509;43.862;26.176;2023-06-22T00:43:10;101011.41;;;18.77;98.27
33153;BME280;19509;43.862;26.176;2023-06-22T00:45:36;101005.00;;;18.66;98.34
33153;BME280;19509;43.862;26.176;2023-06-22T00:48:02;101005.09;;;18.72;99.12
33153;BME280;19509;43.862;26.176;2023-06-22T00:50:32;101004.19;;;18.88;98.37
33153;BME280;19509;43.862;26.176;2023-06-22T00:53:07;101009.81;;;18.59;98.56
33153;BME280;19509;43.862;26.176;2023-06-22T00:55:38;101004.72;;;18.24;100.00
33153;BME280;19509;43.862;26.176;2023-06-22T00:58:09;100999.84;;;18.26;100.00
33153;BME280;19509;43.862;26.176;2023-06-22T01:00:39;100998.56;;;18.34;100.00
33153;BME280;19509;43.862;26.176;2023-06-22T01:03:05;101002.53;;;18.43;100.00
33153;BME280;19509;43.862;26.176;2023-06-22T01:05:34;100999.88;;;18.48;100.00
33153;BME280;19509;43.862;26.176;2023-06-22T01:08:04;101007.53;;;18.51;100.00
33153;BME280;19509;43.862;26.176;2023-06-22T01:10:42;101008.38;;;18.52;100.00
33153;BME280;19509;43.862;26.176;2023-06-22T01:13:27;101000.78;;;18.37;100.00
33153;BME280;19509;43.862;26.176;2023-06-22T01:18:42;100995.63;;;18.35;100.00
33153;BME280;19509;43.862;26.176;2023-06-22T01:21:12;100993.53;;;18.42;100.00
33153;BME280;19509;43.862;26.176;2023-06-22T01:23:53;101001.63;;;18.37;100.00
33153;BME280;19509;43.862;26.176;2023-06-22T01:28:57;100996.97;;;18.55;100.00
33153;BME280;19509;43.862;26.176;2023-06-22T01:31:26;100979.34;;;18.62;100.00
33153;BME280;19509;43.862;26.176;2023-06-22T01:34:05;100984.50;;;18.64;100.00
33153;BME280;19509;43.862;26.176;2023-06-22T01:36:33;100991.38;;;18.66;100.00
33153;BME280;19509;43.862;26.176;2023-06-22T01:38:59;100994.91;;;18.67;100.00
33153;BME280;19509;43.862;26.176;2023-06-22T01:41:26;100994.91;;;18.67;100.00
33153;BME280;19509;43.862;26.176;2023-06-22T01:43:54;100997.63;;;18.67;100.00
33153;BME280;19509;43.862;26.176;2023-06-22T01:46:21;101002.47;;;18.60;100.00
33153;BME280;19509;43.862;26.176;2023-06-22T01:48:47;101014.31;;;18.71;100.00
33153;BME280;19509;43.862;26.176;2023-06-22T01:51:13;101016.00;;;18.72;99.46
33153;BME280;19509;43.862;26.176;2023-06-22T01:53:39;101019.59;;;18.77;99.14
33153;BME280;19509;43.862;26.176;2023-06-22T01:56:05;101018.03;;;18.64;98.85
33153;BME280;19509;43.862;26.176;2023-06-22T01:58:32;101017.03;;;18.71;98.67
33153;BME280;19509;43.862;26.176;2023-06-22T02:01:24;101018.56;;;18.61;98.85
33153;BME280;19509;43.862;26.176;2023-06-22T02:04:03;101022.53;;;18.54;99.13
33153;BME280;19509;43.862;26.176;2023-06-22T02:06:34;101027.44;;;18.52;98.34
33153;BME280;19509;43.862;26.176;2023-06-22T02:09:11;101031.84;;;18.36;98.04
33153;BME280;19509;43.862;26.176;2023-06-22T02:11:40;101033.16;;;18.33;97.37
33153;BME280;19509;43.862;26.176;2023-06-22T02:14:07;101041.75;;;18.42;96.66
33153;BME280;19509;43.862;26.176;2023-06-22T02:16:32;101037.88;;;18.38;96.68
33153;BME280;19509;43.862;26.176;2023-06-22T02:19:01;101035.84;;;18.28;97.38
33153;BME280;19509;43.862;26.176;2023-06-22T02:21:29;101037.59;;;18.17;98.10
33153;BME280;19509;43.862;26.176;2023-06-22T02:23:56;101045.81;;;18.23;98.36
33153;BME280;19509;43.862;26.176;2023-06-22T02:26:22;101042.75;;;18.36;97.25
33153;BME280;19509;43.862;26.176;2023-06-22T02:28:48;101045.25;;;18.20;97.94
33153;BME280;19509;43.862;26.176;2023-06-22T02:31:14;101039.91;;;18.09;98.74
33153;BME280;19509;43.862;26.176;2023-06-22T02:33:40;101041.16;;;18.01;99.44
33153;BME280;19509;43.862;26.176;2023-06-22T02:36:05;101051.56;;;18.04;99.54
33153;BME280;19509;43.862;26.176;2023-06-22T02:38:37;101056.06;;;18.15;99.70
33153;BME280;19509;43.862;26.176;2023-06-22T02:41:02;101056.41;;;18.19;98.95
33153;BME280;19509;43.862;26.176;2023-06-22T02:43:28;101062.44;;;18.04;99.29
33153;BME280;19509;43.862;26.176;2023-06-22T02:45:53;101058.81;;;17.99;99.32
33153;BME280;19509;43.862;26.176;2023-06-22T02:48:19;101061.63;;;18.04;99.31
33153;BME280;19509;43.862;26.176;2023-06-22T02:50:44;101066.88;;;18.10;99.35
33153;BME280;19509;43.862;26.176;2023-06-22T02:53:10;101062.00;;;18.12;99.11
33153;BME280;19509;43.862;26.176;2023-06-22T02:55:36;101070.84;;;18.19;98.52
33153;BME280;19509;43.862;26.176;2023-06-22T02:58:01;101072.56;;;18.26;98.55
33153;BME280;19509;43.862;26.176;2023-06-22T03:00:30;101072.06;;;18.29;98.72
33153;BME280;19509;43.862;26.176;2023-06-22T03:02:56;101078.16;;;18.36;98.10
33153;BME280;19509;43.862;26.176;2023-06-22T03:05:22;101072.13;;;18.34;97.19
33153;BME280;19509;43.862;26.176;2023-06-22T03:07:48;101078.94;;;18.31;96.47
33153;BME280;19509;43.862;26.176;2023-06-22T03:10:14;101081.22;;;18.39;96.57
33153;BME280;19509;43.862;26.176;2023-06-22T03:12:40;101086.09;;;18.37;96.65
33153;BME280;19509;43.862;26.176;2023-06-22T03:15:08;101087.50;;;18.40;95.68
33153;BME280;19509;43.862;26.176;2023-06-22T03:17:34;101087.97;;;18.37;95.75
33153;BME280;19509;43.862;26.176;2023-06-22T03:20:00;101086.84;;;18.33;95.65
33153;BME280;19509;43.862;26.176;2023-06-22T03:22:26;101083.28;;;18.32;95.65
33153;BME280;19509;43.862;26.176;2023-06-22T03:24:51;101086.94;;;18.38;94.60
33153;BME280;19509;43.862;26.176;2023-06-22T03:27:17;101089.00;;;18.31;96.07
33153;BME280;19509;43.862;26.176;2023-06-22T03:29:43;101092.13;;;18.39;96.39
33153;BME280;19509;43.862;26.176;2023-06-22T03:32:10;101083.00;;;18.51;95.71
33153;BME280;19509;43.862;26.176;2023-06-22T03:34:35;101081.81;;;18.63;94.79
33153;BME280;19509;43.862;26.176;2023-06-22T03:37:04;101079.34;;;18.79;94.00
33153;BME280;19509;43.862;26.176;2023-06-22T03:39:29;101079.78;;;18.93;93.52
33153;BME280;19509;43.862;26.176;2023-06-22T03:41:55;101082.25;;;18.94;93.92
33153;BME280;19509;43.862;26.176;2023-06-22T03:44:20;101082.44;;;19.09;93.57
33153;BME280;19509;43.862;26.176;2023-06-22T03:46:46;101087.13;;;19.14;93.51
33153;BME280;19509;43.862;26.176;2023-06-22T03:49:12;101080.66;;;19.20;93.99
33153;BME280;19509;43.862;26.176;2023-06-22T03:51:37;101070.09;;;19.29;93.73
33153;BME280;19509;43.862;26.176;2023-06-22T03:54:04;101065.84;;;19.38;93.46
33153;BME280;19509;43.862;26.176;2023-06-22T03:56:29;101062.63;;;19.46;92.63
33153;BME280;19509;43.862;26.176;2023-06-22T03:58:55;101069.28;;;19.55;92.26
33153;BME280;19509;43.862;26.176;2023-06-22T04:01:20;101080.09;;;19.67;91.78
33153;BME280;19509;43.862;26.176;2023-06-22T04:03:46;101071.38;;;19.70;91.85
33153;BME280;19509;43.862;26.176;2023-06-22T04:06:13;101072.91;;;19.93;91.29
33153;BME280;19509;43.862;26.176;2023-06-22T04:08:39;101078.31;;;20.20;90.00
33153;BME280;19509;43.862;26.176;2023-06-22T04:11:06;101079.28;;;20.41;88.75
33153;BME280;19509;43.862;26.176;2023-06-22T04:13:31;101083.25;;;20.55;87.87
33153;BME280;19509;43.862;26.176;2023-06-22T04:15:57;101079.13;;;20.58;88.11
33153;BME280;19509;43.862;26.176;2023-06-22T04:18:22;101080.28;;;20.62;87.77
33153;BME280;19509;43.862;26.176;2023-06-22T04:20:48;101090.41;;;20.67;88.49
33153;BME280;19509;43.862;26.176;2023-06-22T04:23:13;101086.84;;;20.66;88.09
33153;BME280;19509;43.862;26.176;2023-06-22T04:25:39;101090.91;;;20.59;87.87
33153;BME280;19509;43.862;26.176;2023-06-22T04:28:05;101092.63;;;20.75;87.31
33153;BME280;19509;43.862;26.176;2023-06-22T04:30:32;101099.22;;;20.79;88.05
33153;BME280;19509;43.862;26.176;2023-06-22T04:32:58;101095.16;;;20.92;87.70
33153;BME280;19509;43.862;26.176;2023-06-22T04:35:24;101093.31;;;21.08;87.95
33153;BME280;19509;43.862;26.176;2023-06-22T04:37:50;101090.31;;;21.09;87.64
33153;BME280;19509;43.862;26.176;2023-06-22T04:40:21;101092.25;;;21.19;87.15
33153;BME280;19509;43.862;26.176;2023-06-22T04:42:47;101096.16;;;21.33;86.26
33153;BME280;19509;43.862;26.176;2023-06-22T04:45:17;101092.06;;;21.36;85.75
33153;BME280;19509;43.862;26.176;2023-06-22T04:47:43;101101.97;;;21.62;85.34
33153;BME280;19509;43.862;26.176;2023-06-22T04:50:13;101104.47;;;21.74;85.33
33153;BME280;19509;43.862;26.176;2023-06-22T04:52:39;101109.13;;;21.84;85.31
33153;BME280;19509;43.862;26.176;2023-06-22T04:55:05;101108.31;;;21.88;85.26
33153;BME280;19509;43.862;26.176;2023-06-22T04:57:30;101112.16;;;22.03;85.87
33153;BME280;19509;43.862;26.176;2023-06-22T05:00:01;101111.91;;;22.30;86.28
33153;BME280;19509;43.862;26.176;2023-06-22T05:02:26;101107.50;;;22.39;85.37
33153;BME280;19509;43.862;26.176;2023-06-22T05:04:53;101119.28;;;22.50;85.37
33153;BME280;19509;43.862;26.176;2023-06-22T05:07:22;101115.66;;;22.70;83.37
33153;BME280;19509;43.862;26.176;2023-06-22T05:09:50;101125.19;;;22.93;82.93
33153;BME280;19509;43.862;26.176;2023-06-22T05:12:16;101120.47;;;23.13;78.82
33153;BME280;19509;43.862;26.176;2023-06-22T05:14:41;101125.41;;;23.17;79.17
33153;BME280;19509;43.862;26.176;2023-06-22T05:17:07;101119.41;;;23.04;83.96
33153;BME280;19509;43.862;26.176;2023-06-22T05:19:38;101121.34;;;23.04;84.57
33153;BME280;19509;43.862;26.176;2023-06-22T05:22:04;101112.44;;;23.27;84.87
33153;BME280;19509;43.862;26.176;2023-06-22T05:24:31;101109.69;;;23.27;79.66
33153;BME280;19509;43.862;26.176;2023-06-22T05:26:57;101114.50;;;23.51;79.46
33153;BME280;19509;43.862;26.176;2023-06-22T05:29:22;101111.97;;;23.59;78.89
33153;BME280;19509;43.862;26.176;2023-06-22T05:31:48;101111.28;;;23.83;79.26
33153;BME280;19509;43.862;26.176;2023-06-22T05:34:14;101111.75;;;23.95;75.58
33153;BME280;19509;43.862;26.176;2023-06-22T05:36:40;101115.19;;;23.77;78.17
33153;BME280;19509;43.862;26.176;2023-06-22T05:39:12;101115.66;;;23.84;77.61
33153;BME280;19509;43.862;26.176;2023-06-22T05:41:41;101113.78;;;23.79;79.76
33153;BME280;19509;43.862;26.176;2023-06-22T05:44:08;101125.13;;;24.07;76.17
33153;BME280;19509;43.862;26.176;2023-06-22T05:46:34;101119.03;;;24.10;71.19
33153;BME280;19509;43.862;26.176;2023-06-22T05:48:59;101122.66;;;24.05;73.32
33153;BME280;19509;43.862;26.176;2023-06-22T05:51:25;101124.47;;;24.20;71.21
33153;BME280;19509;43.862;26.176;2023-06-22T05:53:50;101126.13;;;24.50;74.50
33153;BME280;19509;43.862;26.176;2023-06-22T05:56:16;101123.03;;;24.57;70.11
33153;BME280;19509;43.862;26.176;2023-06-22T05:58:42;101130.16;;;24.58;69.39
33153;BME280;19509;43.862;26.176;2023-06-22T06:01:07;101132.06;;;24.63;71.19
33153;BME280;19509;43.862;26.176;2023-06-22T06:03:33;101129.81;;;24.65;69.11
33153;BME280;19509;43.862;26.176;2023-06-22T06:05:59;101117.47;;;24.62;67.08
33153;BME280;19509;43.862;26.176;2023-06-22T06:08:25;101116.84;;;24.70;68.71
33153;BME280;19509;43.862;26.176;2023-06-22T06:10:50;101108.28;;;24.72;65.81
33153;BME280;19509;43.862;26.176;2023-06-22T06:13:18;101113.91;;;24.62;70.66
33153;BME280;19509;43.862;26.176;2023-06-22T06:15:43;101118.03;;;24.59;69.18
33153;BME280;19509;43.862;26.176;2023-06-22T06:18:09;101123.28;;;24.61;67.47
33153;BME280;19509;43.862;26.176;2023-06-22T06:20:35;101117.94;;;24.69;65.31
33153;BME280;19509;43.862;26.176;2023-06-22T06:23:00;101120.56;;;24.79;64.97
33153;BME280;19509;43.862;26.176;2023-06-22T06:25:27;101124.34;;;25.13;64.95
33153;BME280;19509;43.862;26.176;2023-06-22T06:27:53;101123.34;;;25.28;65.28
33153;BME280;19509;43.862;26.176;2023-06-22T06:30:20;101108.97;;;25.31;65.34
33153;BME280;19509;43.862;26.176;2023-06-22T06:32:46;101115.81;;;25.33;64.87
33153;BME280;19509;43.862;26.176;2023-06-22T06:35:13;101121.25;;;25.38;62.40
33153;BME280;19509;43.862;26.176;2023-06-22T06:37:41;101117.81;;;25.28;66.12
33153;BME280;19509;43.862;26.176;2023-06-22T06:40:08;101112.72;;;25.16;64.67
33153;BME280;19509;43.862;26.176;2023-06-22T06:42:41;101115.88;;;25.28;66.56
33153;BME280;19509;43.862;26.176;2023-06-22T06:45:16;101108.44;;;25.47;62.30
33153;BME280;19509;43.862;26.176;2023-06-22T06:47:42;101112.31;;;25.65;62.97
33153;BME280;19509;43.862;26.176;2023-06-22T06:50:08;101110.22;;;25.57;57.75
33153;BME280;19509;43.862;26.176;2023-06-22T06:52:35;101101.06;;;25.81;62.24
33153;BME280;19509;43.862;26.176;2023-06-22T06:55:01;101111.59;;;26.11;61.36
33153;BME280;19509;43.862;26.176;2023-06-22T06:57:26;101114.09;;;26.27;58.02
33153;BME280;19509;43.862;26.176;2023-06-22T06:59:58;101118.09;;;26.02;59.87
33153;BME280;19509;43.862;26.176;2023-06-22T07:02:25;101113.44;;;26.02;56.56
33153;BME280;19509;43.862;26.176;2023-06-22T07:04:53;101116.13;;;26.21;57.25
33153;BME280;19509;43.862;26.176;2023-06-22T07:07:20;101114.94;;;26.08;59.30
33153;BME280;19509;43.862;26.176;2023-06-22T07:09:46;101111.56;;;26.44;55.12
33153;BME280;19509;43.862;26.176;2023-06-22T07:12:12;101116.22;;;26.62;57.23
33153;BME280;19509;43.862;26.176;2023-06-22T07:14:37;101112.97;;;26.74;53.26
33153;BME280;19509;43.862;26.176;2023-06-22T07:17:03;101115.13;;;26.77;53.62
33153;BME280;19509;43.862;26.176;2023-06-22T07:19:29;101099.56;;;26.81;57.17
33153;BME280;19509;43.862;26.176;2023-06-22T07:21:56;101104.28;;;26.81;56.18
33153;BME280;19509;43.862;26.176;2023-06-22T07:24:22;101106.91;;;26.86;54.76
33153;BME280;19509;43.862;26.176;2023-06-22T07:26:48;101106.41;;;26.98;52.05
33153;BME280;19509;43.862;26.176;2023-06-22T07:29:18;101102.84;;;26.97;52.68
33153;BME280;19509;43.862;26.176;2023-06-22T07:31:45;101108.78;;;26.77;55.01
33153;BME280;19509;43.862;26.176;2023-06-22T07:34:11;101109.38;;;26.87;56.00
33153;BME280;19509;43.862;26.176;2023-06-22T07:36:36;101099.16;;;26.74;53.32
33153;BME280;19509;43.862;26.176;2023-06-22T07:39:02;101113.16;;;26.92;54.02
33153;BME280;19509;43.862;26.176;2023-06-22T07:41:29;101107.44;;;26.88;54.20
33153;BME280;19509;43.862;26.176;2023-06-22T07:43:55;101112.22;;;26.82;49.88
33153;BME280;19509;43.862;26.176;2023-06-22T07:46:21;101112.22;;;26.82;54.19
33153;BME280;19509;43.862;26.176;2023-06-22T07:48:47;101106.41;;;27.25;53.97
33153;BME280;19509;43.862;26.176;2023-06-22T07:51:13;101110.69;;;27.31;50.12
33153;BME280;19509;43.862;26.176;2023-06-22T07:53:40;101113.47;;;27.54;49.99
33153;BME280;19509;43.862;26.176;2023-06-22T07:56:06;101115.75;;;27.88;48.16
33153;BME280;19509;43.862;26.176;2023-06-22T07:58:32;101117.00;;;28.04;49.06
33153;BME280;19509;43.862;26.176;2023-06-22T08:00:58;101111.72;;;28.17;47.97
33153;BME280;19509;43.862;26.176;2023-06-22T08:03:24;101117.72;;;28.19;47.69
33153;BME280;19509;43.862;26.176;2023-06-22T08:05:50;101109.75;;;28.17;50.96
33153;BME280;19509;43.862;26.176;2023-06-22T08:08:15;101114.38;;;27.99;48.83
33153;BME280;19509;43.862;26.176;2023-06-22T08:10:42;101100.69;;;28.25;49.80
33153;BME280;19509;43.862;26.176;2023-06-22T08:13:08;101106.34;;;28.43;50.10
33153;BME280;19509;43.862;26.176;2023-06-22T08:15:33;101099.81;;;28.39;46.37
33153;BME280;19509;43.862;26.176;2023-06-22T08:17:59;101104.88;;;28.45;49.15
33153;BME280;19509;43.862;26.176;2023-06-22T08:20:26;101104.66;;;28.64;48.85
33153;BME280;19509;43.862;26.176;2023-06-22T08:22:53;101109.44;;;28.41;47.27
33153;BME280;19509;43.862;26.176;2023-06-22T08:25:19;101107.19;;;28.52;46.67
33153;BME280;19509;43.862;26.176;2023-06-22T08:27:46;101104.31;;;28.66;48.12
33153;BME280;19509;43.862;26.176;2023-06-22T08:30:15;101102.69;;;28.65;48.01
33153;BME280;19509;43.862;26.176;2023-06-22T08:32:41;101100.63;;;28.70;47.36
33153;BME280;19509;43.862;26.176;2023-06-22T08:35:07;101110.50;;;28.63;52.06
33153;BME280;19509;43.862;26.176;2023-06-22T08:37:35;101103.94;;;28.50;50.01
33153;BME280;19509;43.862;26.176;2023-06-22T08:40:04;101106.50;;;28.86;49.44
33153;BME280;19509;43.862;26.176;2023-06-22T08:42:30;101106.41;;;29.00;47.46
33153;BME280;19509;43.862;26.176;2023-06-22T08:44:56;101114.94;;;29.21;47.49
33153;BME280;19509;43.862;26.176;2023-06-22T08:47:22;101103.38;;;29.28;48.74
33153;BME280;19509;43.862;26.176;2023-06-22T08:49:48;101109.38;;;29.12;46.88
33153;BME280;19509;43.862;26.176;2023-06-22T08:52:14;101101.25;;;29.33;48.53
33153;BME280;19509;43.862;26.176;2023-06-22T08:54:40;101104.53;;;29.53;47.66
33153;BME280;19509;43.862;26.176;2023-06-22T08:57:06;101106.34;;;29.49;45.01
33153;BME280;19509;43.862;26.176;2023-06-22T08:59:31;101108.13;;;29.44;45.13
33153;BME280;19509;43.862;26.176;2023-06-22T09:01:57;101097.88;;;29.45;47.52
33153;BME280;19509;43.862;26.176;2023-06-22T09:04:23;101100.59;;;29.19;46.56
33153;BME280;19509;43.862;26.176;2023-06-22T09:06:49;101104.97;;;29.03;48.47
33153;BME280;19509;43.862;26.176;2023-06-22T09:09:17;101106.66;;;29.30;47.24
33153;BME280;19509;43.862;26.176;2023-06-22T09:11:43;101106.28;;;29.05;47.25
33153;BME280;19509;43.862;26.176;2023-06-22T09:14:10;101109.31;;;28.95;49.70
33153;BME280;19509;43.862;26.176;2023-06-22T09:16:36;101099.00;;;29.53;49.87
33153;BME280;19509;43.862;26.176;2023-06-22T09:19:02;101095.53;;;29.21;44.14
33153;BME280;19509;43.862;26.176;2023-06-22T09:21:28;101098.94;;;29.09;43.31
33153;BME280;19509;43.862;26.176;2023-06-22T09:23:54;101104.81;;;29.08;47.03
33153;BME280;19509;43.862;26.176;2023-06-22T09:26:20;101095.88;;;29.19;48.66
33153;BME280;19509;43.862;26.176;2023-06-22T09:28:46;101096.19;;;29.09;45.34
33153;BME280;19509;43.862;26.176;2023-06-22T09:31:12;101097.91;;;29.62;45.64
33153;BME280;19509;43.862;26.176;2023-06-22T09:33:39;101093.97;;;29.63;44.73
33153;BME280;19509;43.862;26.176;2023-06-22T09:36:05;101098.66;;;29.28;44.77
33153;BME280;19509;43.862;26.176;2023-06-22T09:38:36;101093.78;;;29.68;44.65
33153;BME280;19509;43.862;26.176;2023-06-22T09:41:02;101084.50;;;29.64;44.18
33153;BME280;19509;43.862;26.176;2023-06-22T09:43:28;101093.75;;;29.94;44.77
33153;BME280;19509;43.862;26.176;2023-06-22T09:45:53;101085.28;;;29.91;48.60
33153;BME280;19509;43.862;26.176;2023-06-22T09:48:19;101086.72;;;30.06;43.32
33153;BME280;19509;43.862;26.176;2023-06-22T09:50:45;101083.81;;;29.93;42.16
33153;BME280;19509;43.862;26.176;2023-06-22T09:53:10;101088.88;;;30.00;41.54
33153;BME280;19509;43.862;26.176;2023-06-22T09:55:36;101093.44;;;29.79;44.49
33153;BME280;19509;43.862;26.176;2023-06-22T09:58:01;101082.38;;;29.61;43.95
33153;BME280;19509;43.862;26.176;2023-06-22T10:00:27;101082.72;;;29.60;44.73
33153;BME280;19509;43.862;26.176;2023-06-22T10:02:53;101077.16;;;29.60;46.46
33153;BME280;19509;43.862;26.176;2023-06-22T10:05:18;101068.03;;;29.77;46.13
33153;BME280;19509;43.862;26.176;2023-06-22T10:07:44;101076.50;;;29.80;45.62
33153;BME280;19509;43.862;26.176;2023-06-22T10:10:11;101084.19;;;29.66;45.03
33153;BME280;19509;43.862;26.176;2023-06-22T10:12:41;101077.63;;;29.62;46.47
33153;BME280;19509;43.862;26.176;2023-06-22T10:15:07;101074.69;;;29.50;45.09
33153;BME280;19509;43.862;26.176;2023-06-22T10:17:33;101067.03;;;29.55;45.96
33153;BME280;19509;43.862;26.176;2023-06-22T10:20:00;101068.47;;;29.87;48.07
33153;BME280;19509;43.862;26.176;2023-06-22T10:22:26;101070.94;;;29.80;45.01
33153;BME280;19509;43.862;26.176;2023-06-22T10:24:51;101073.53;;;29.16;44.86
33153;BME280;19509;43.862;26.176;2023-06-22T10:27:17;101070.78;;;29.42;46.57
33153;BME280;19509;43.862;26.176;2023-06-22T10:29:42;101069.16;;;29.76;46.41
33153;BME280;19509;43.862;26.176;2023-06-22T10:32:08;101066.88;;;29.86;45.22
33153;BME280;19509;43.862;26.176;2023-06-22T10:34:34;101060.63;;;29.98;43.08
33153;BME280;19509;43.862;26.176;2023-06-22T10:36:59;101069.13;;;29.93;41.10
33153;BME280;19509;43.862;26.176;2023-06-22T10:39:25;101078.63;;;29.66;39.91
33153;BME280;19509;43.862;26.176;2023-06-22T10:41:50;101065.59;;;29.66;40.26
33153;BME280;19509;43.862;26.176;2023-06-22T10:44:16;101060.84;;;29.76;40.94
33153;BME280;19509;43.862;26.176;2023-06-22T10:46:42;101061.00;;;29.79;42.57
33153;BME280;19509;43.862;26.176;2023-06-22T10:49:08;101055.47;;;29.79;42.48
33153;BME280;19509;43.862;26.176;2023-06-22T10:51:33;101064.75;;;29.49;40.84
33153;BME280;19509;43.862;26.176;2023-06-22T10:53:59;101061.81;;;29.71;44.65
33153;BME280;19509;43.862;26.176;2023-06-22T10:56:24;101053.63;;;29.92;42.33
33153;BME280;19509;43.862;26.176;2023-06-22T10:58:50;101050.31;;;30.07;42.61
33153;BME280;19509;43.862;26.176;2023-06-22T11:01:16;101047.19;;;30.17;43.79
33153;BME280;19509;43.862;26.176;2023-06-22T11:03:41;101053.56;;;30.09;44.07
33153;BME280;19509;43.862;26.176;2023-06-22T11:06:07;101048.72;;;29.98;43.62
33153;BME280;19509;43.862;26.176;2023-06-22T11:08:32;101056.19;;;30.06;45.42
33153;BME280;19509;43.862;26.176;2023-06-22T11:10:58;101040.81;;;30.17;40.40
33153;BME280;19509;43.862;26.176;2023-06-22T11:13:23;101049.59;;;30.66;43.79
33153;BME280;19509;43.862;26.176;2023-06-22T11:15:50;101030.63;;;30.77;44.32
33153;BME280;19509;43.862;26.176;2023-06-22T11:18:15;101044.34;;;31.03;42.79
33153;BME280;19509;43.862;26.176;2023-06-22T11:20:42;101037.84;;;30.99;41.29
33153;BME280;19509;43.862;26.176;2023-06-22T11:23:07;101044.34;;;30.82;39.85
33153;BME280;19509;43.862;26.176;2023-06-22T11:25:33;101039.44;;;30.79;41.96
33153;BME280;19509;43.862;26.176;2023-06-22T11:28:03;101041.19;;;30.54;42.30
33153;BME280;19509;43.862;26.176;2023-06-22T11:30:29;101034.72;;;30.71;40.87
33153;BME280;19509;43.862;26.176;2023-06-22T11:32:57;101026.44;;;30.62;41.14
33153;BME280;19509;43.862;26.176;2023-06-22T11:35:23;101029.09;;;30.88;39.85
33153;BME280;19509;43.862;26.176;2023-06-22T11:37:48;101033.91;;;30.70;41.67
33153;BME280;19509;43.862;26.176;2023-06-22T11:40:14;101036.81;;;30.74;43.33
33153;BME280;19509;43.862;26.176;2023-06-22T11:42:40;101023.31;;;30.34;42.16
33153;BME280;19509;43.862;26.176;2023-06-22T11:45:06;101037.16;;;30.72;40.88
33153;BME280;19509;43.862;26.176;2023-06-22T11:47:32;101035.78;;;30.87;42.51
33153;BME280;19509;43.862;26.176;2023-06-22T11:49:57;101026.06;;;31.02;40.44
33153;BME280;19509;43.862;26.176;2023-06-22T11:52:23;101028.03;;;31.22;41.18
33153;BME280;19509;43.862;26.176;2023-06-22T11:54:48;101024.63;;;30.96;40.68
33153;BME280;19509;43.862;26.176;2023-06-22T11:57:14;101026.72;;;30.99;42.04
33153;BME280;19509;43.862;26.176;2023-06-22T11:59:39;101019.06;;;30.96;42.34
33153;BME280;19509;43.862;26.176;2023-06-22T12:05:27;101017.22;;;30.79;42.41
33153;BME280;19509;43.862;26.176;2023-06-22T12:07:53;101003.09;;;30.84;42.47
33153;BME280;19509;43.862;26.176;2023-06-22T12:10:19;101017.78;;;31.14;41.48
33153;BME280;19509;43.862;26.176;2023-06-22T12:12:44;101010.72;;;31.38;40.25
33153;BME280;19509;43.862;26.176;2023-06-22T12:15:10;101013.66;;;31.74;41.33
33153;BME280;19509;43.862;26.176;2023-06-22T12:17:35;101032.94;;;31.79;44.88
33153;BME280;19509;43.862;26.176;2023-06-22T12:20:01;101013.19;;;31.39;40.01
33153;BME280;19509;43.862;26.176;2023-06-22T12:22:33;101007.31;;;31.11;40.58
33153;BME280;19509;43.862;26.176;2023-06-22T12:24:58;101002.56;;;31.53;42.14
33153;BME280;19509;43.862;26.176;2023-06-22T12:27:25;101003.41;;;31.87;40.64
33153;BME280;19509;43.862;26.176;2023-06-22T12:29:50;101003.44;;;31.78;41.56
33153;BME280;19509;43.862;26.176;2023-06-22T12:32:16;100994.69;;;31.89;39.65
33153;BME280;19509;43.862;26.176;2023-06-22T12:34:42;100990.03;;;31.80;40.97
33153;BME280;19509;43.862;26.176;2023-06-22T12:37:08;100989.22;;;31.80;42.09
33153;BME280;19509;43.862;26.176;2023-06-22T12:39:34;100985.25;;;31.81;41.39
33153;BME280;19509;43.862;26.176;2023-06-22T12:41:59;100973.72;;;32.16;38.93
33153;BME280;19509;43.862;26.176;2023-06-22T12:44:25;100982.19;;;32.19;40.89
33153;BME280;19509;43.862;26.176;2023-06-22T12:46:50;100985.00;;;32.07;39.87